Time;durP1;ratioP1;P1;durP2;ratioP2;P2;SDS_P1;SDS_P2;PMS_P1;PMS_P2;Temp;Humidity;BMP_temperature;BMP_pressure;BME280_temperature;BME280_humidity;BME280_pressure;Samples;Min_cycle;Max_cycle;Signal;HPM_P1;HPM_P2
2020/12/04 00:00:42;;;;;;;15.40;13.18;;;;;;;3.87;65.04;97754.53;9901441;28;20056;-62
2020/12/04 00:05:43;;;;;;;15.55;13.02;;;;;;;3.87;64.14;97744.00;9900449;28;20052;-61
2020/12/04 00:10:45;;;;;;;14.82;12.70;;;;;;;3.75;64.88;97718.78;9893231;28;20064;-61
2020/12/04 00:15:46;;;;;;;14.75;12.35;;;;;;;3.72;65.05;97706.78;9901672;28;20060;-62
2020/12/04 00:20:48;;;;;;;16.55;13.65;;;;;;;3.76;65.50;97715.19;9897614;28;20055;-62
2020/12/04 00:25:49;;;;;;;15.30;12.95;;;;;;;3.76;65.89;97704.66;9897468;28;20503;-62
2020/12/04 00:30:51;;;;;;;14.23;12.70;;;;;;;3.57;67.26;97678.41;9892952;28;20053;-62
2020/12/04 00:35:52;;;;;;;14.55;12.73;;;;;;;3.65;67.69;97686.44;9903528;28;21730;-60
2020/12/04 00:40:53;;;;;;;15.50;13.00;;;;;;;3.64;68.21;97684.78;9895514;28;20052;-60
2020/12/04 00:45:55;;;;;;;15.63;13.57;;;;;;;3.52;69.02;97687.56;9886640;28;20513;-63
2020/12/04 00:50:56;;;;;;;15.93;13.75;;;;;;;3.41;69.73;97703.50;9880422;28;20060;-60
2020/12/04 00:55:57;;;;;;;16.58;13.50;;;;;;;3.45;70.75;97696.16;9885786;28;20057;-60
2020/12/04 01:01:00;;;;;;;15.82;13.70;;;;;;;3.44;71.16;97684.81;9900414;28;24434;-61
2020/12/04 01:06:01;;;;;;;15.15;13.55;;;;;;;3.42;71.23;97681.47;9889190;28;20056;-60
2020/12/04 01:11:03;;;;;;;15.18;13.55;;;;;;;3.40;72.32;97680.81;9886683;28;20384;-61
2020/12/04 01:16:08;;;;;;;16.60;14.27;;;;;;;3.34;72.09;97662.97;9913563;28;20050;-60
2020/12/04 01:21:11;;;;;;;16.85;14.48;;;;;;;3.26;72.74;97654.94;9899837;28;20064;-61
2020/12/04 01:26:13;;;;;;;20.17;15.18;;;;;;;3.27;73.27;97651.34;9906808;28;20175;-60
2020/12/04 01:31:14;;;;;;;17.48;13.88;;;;;;;3.39;72.89;97644.13;9907522;28;22111;-62
2020/12/04 01:36:15;;;;;;;15.05;13.27;;;;;;;3.35;73.24;97628.63;9902320;28;20057;-66
2020/12/04 01:41:17;;;;;;;17.08;13.63;;;;;;;3.41;72.71;97616.72;9918530;28;22603;-61
2020/12/04 01:46:18;;;;;;;15.00;13.20;;;;;;;3.48;72.73;97616.97;9916233;28;20049;-61
2020/12/04 01:51:21;;;;;;;14.20;12.70;;;;;;;3.51;72.15;97617.53;9902859;28;20127;-61
2020/12/04 01:56:22;;;;;;;15.90;12.65;;;;;;;3.58;72.31;97614.31;9903048;28;20057;-61
2020/12/04 02:01:23;;;;;;;15.80;12.77;;;;;;;3.48;71.71;97611.69;9921494;28;20091;-62
2020/12/04 02:06:37;;;;;;;13.77;12.30;;;;;;;3.31;72.05;97600.13;9919894;28;20052;-62
2020/12/04 02:11:41;;;;;;;16.15;13.38;;;;;;;3.37;71.88;97578.53;9908988;28;20060;-61
2020/12/04 02:16:46;;;;;;;14.68;12.35;;;;;;;3.39;72.48;97571.31;9910343;28;24932;-62
2020/12/04 02:21:47;;;;;;;16.77;14.60;;;;;;;3.34;72.25;97563.03;9905218;28;20418;-63
2020/12/04 02:26:48;;;;;;;17.70;13.50;;;;;;;3.33;72.06;97551.69;9901055;28;20060;-61
2020/12/04 02:31:50;;;;;;;14.98;12.68;;;;;;;3.44;72.00;97547.22;9905736;28;20053;-61
2020/12/04 02:36:55;;;;;;;14.85;13.05;;;;;;;3.42;72.31;97531.56;9897793;28;20064;-61
2020/12/04 02:41:57;;;;;;;15.57;13.18;;;;;;;3.41;72.69;97524.69;9906405;28;20490;-63
2020/12/04 02:46:58;;;;;;;16.38;13.90;;;;;;;3.52;72.35;97513.94;9898842;28;20286;-62
2020/12/04 02:52:00;;;;;;;15.88;12.57;;;;;;;3.56;71.95;97511.03;9908845;28;20056;-61
2020/12/04 02:57:01;;;;;;;15.30;13.32;;;;;;;3.52;71.63;97513.94;9905473;28;23005;-61
2020/12/04 03:02:03;;;;;;;17.45;12.73;;;;;;;3.57;72.17;97520.59;9907840;28;20049;-62
2020/12/04 03:07:05;;;;;;;15.18;13.25;;;;;;;3.63;72.94;97506.84;9898931;28;20092;-64
2020/12/04 03:12:06;;;;;;;17.40;14.00;;;;;;;3.65;73.11;97508.38;9889783;28;20388;-63
2020/12/04 03:17:07;;;;;;;19.10;14.05;;;;;;;3.70;72.86;97495.56;9912695;28;20052;-61
2020/12/04 03:22:09;;;;;;;16.23;14.50;;;;;;;3.71;73.85;97488.53;9915388;28;20049;-62
2020/12/04 03:27:11;;;;;;;16.23;14.00;;;;;;;3.78;74.17;97491.38;9917310;28;22788;-61
2020/12/04 03:32:12;;;;;;;17.88;14.07;;;;;;;3.84;74.16;97496.91;9911910;28;20058;-62
2020/12/04 03:37:13;;;;;;;15.75;13.02;;;;;;;3.85;74.52;97505.63;9903556;28;20050;-62
2020/12/04 03:42:14;;;;;;;16.50;13.93;;;;;;;3.81;75.25;97504.25;9912608;28;20128;-61
2020/12/04 03:47:16;;;;;;;17.35;13.75;;;;;;;3.73;75.86;97491.84;9911088;28;20056;-62
2020/12/04 03:52:20;;;;;;;15.13;12.27;;;;;;;3.78;75.99;97486.13;9911592;28;20130;-60
2020/12/04 03:57:21;;;;;;;16.30;13.38;;;;;;;3.80;76.81;97505.22;9914190;28;20081;-62
2020/12/04 04:02:23;;;;;;;17.98;13.98;;;;;;;3.86;76.87;97510.72;9910553;28;20056;-61
2020/12/04 04:07:24;;;;;;;15.05;11.82;;;;;;;3.89;77.16;97494.63;9906547;28;20514;-62
2020/12/04 04:12:25;;;;;;;14.43;12.07;;;;;;;3.90;77.36;97487.56;9922285;28;20053;-62
2020/12/04 04:17:27;;;;;;;14.30;11.27;;;;;;;3.95;77.75;97476.59;9917240;28;20060;-61
2020/12/04 04:22:28;;;;;;;13.43;11.10;;;;;;;3.97;78.02;97482.53;9907694;28;20057;-61
2020/12/04 04:27:29;;;;;;;13.25;11.32;;;;;;;4.06;78.38;97479.00;9912362;28;20057;-61
2020/12/04 04:32:31;;;;;;;14.63;10.85;;;;;;;4.10;78.58;97475.09;9919871;28;20042;-61
2020/12/04 04:37:33;;;;;;;12.68;11.35;;;;;;;4.17;79.10;97462.97;9905740;28;20486;-62
2020/12/04 04:42:34;;;;;;;11.25;8.98;;;;;;;4.21;79.29;97463.50;9917530;28;20144;-62
2020/12/04 04:47:39;;;;;;;11.85;9.20;;;;;;;4.20;79.90;97451.31;9907387;28;20053;-59
2020/12/04 04:52:40;;;;;;;13.10;10.20;;;;;;;4.27;79.92;97448.91;9915678;28;20076;-61
2020/12/04 04:57:42;;;;;;;10.07;8.65;;;;;;;4.22;80.38;97454.66;9912278;28;20398;-62
2020/12/04 05:02:46;;;;;;;10.90;8.98;;;;;;;4.23;80.58;97459.75;9913938;28;22946;-62
2020/12/04 05:07:48;;;;;;;11.13;8.33;;;;;;;4.29;80.61;97460.13;9909166;28;20049;-62
2020/12/04 05:13:00;;;;;;;10.65;8.13;;;;;;;4.36;80.83;97453.25;9910111;28;20835;-64
2020/12/04 05:18:05;;;;;;;10.32;8.30;;;;;;;4.41;80.60;97451.84;9918931;28;21016;-61
2020/12/04 05:23:08;;;;;;;10.85;8.70;;;;;;;4.43;80.85;97449.88;9917897;28;20053;-62
2020/12/04 05:28:17;;;;;;;9.75;7.35;;;;;;;4.51;80.52;97454.34;9918241;28;20049;-61
2020/12/04 05:33:19;;;;;;;10.38;8.52;;;;;;;4.51;80.66;97451.72;9913778;28;20052;-61
2020/12/04 05:38:20;;;;;;;9.10;7.30;;;;;;;4.52;80.36;97457.81;9914686;28;21849;-62
2020/12/04 05:43:33;;;;;;;9.52;8.35;;;;;;;4.57;80.38;97456.38;9908876;28;20049;-62
2020/12/04 05:48:35;;;;;;;11.73;9.50;;;;;;;4.63;80.25;97447.03;9913191;28;21094;-61
2020/12/04 05:53:36;;;;;;;10.23;8.20;;;;;;;4.67;80.27;97447.53;9913650;28;20064;-62
2020/12/04 05:58:40;;;;;;;9.35;7.93;;;;;;;4.63;79.91;97444.41;9915620;28;20057;-60
2020/12/04 06:03:42;;;;;;;10.32;8.05;;;;;;;4.68;79.82;97463.19;9907183;28;20057;-62
2020/12/04 06:08:44;;;;;;;10.57;8.18;;;;;;;4.73;79.50;97454.84;9893821;28;20051;-64
2020/12/04 06:13:45;;;;;;;9.40;7.57;;;;;;;4.75;79.82;97463.41;9913872;28;20063;-62
2020/12/04 06:18:46;;;;;;;9.13;7.53;;;;;;;4.78;79.89;97468.38;9905210;28;20056;-61
2020/12/04 06:24:06;;;;;;;10.38;7.40;;;;;;;4.83;79.45;97463.47;9911805;28;20059;-61
2020/12/04 06:29:08;;;;;;;9.52;6.90;;;;;;;4.81;79.89;97468.06;9921645;28;20297;-62
2020/12/04 06:34:19;;;;;;;7.15;5.75;;;;;;;4.84;80.14;97456.41;9910240;28;22083;-61
2020/12/04 06:39:31;;;;;;;4.15;3.60;;;;;;;4.80;81.44;97450.59;9912683;28;21570;-63
2020/12/04 06:44:33;;;;;;;3.60;2.80;;;;;;;4.87;81.38;97451.63;9911640;28;20048;-60
2020/12/04 06:54:40;;;;;;;5.32;2.95;;;;;;;5.02;81.59;97462.41;9910857;28;20068;-61
2020/12/04 06:59:42;;;;;;;3.95;2.63;;;;;;;4.97;81.93;97459.44;9912418;28;20057;-61
2020/12/04 07:04:48;;;;;;;4.22;2.38;;;;;;;5.08;81.70;97474.16;9889308;28;20053;-64
2020/12/04 07:10:00;;;;;;;3.22;2.22;;;;;;;5.05;82.19;97480.56;9912627;28;22847;-60
2020/12/04 07:15:02;;;;;;;3.40;2.38;;;;;;;5.08;82.09;97488.16;9905559;28;20060;-65
2020/12/04 07:20:04;;;;;;;4.18;2.20;;;;;;;5.10;82.76;97478.31;9904907;28;20053;-60
2020/12/04 07:25:06;;;;;;;3.58;2.22;;;;;;;5.14;82.88;97473.53;9915463;28;22914;-60
2020/12/04 07:30:15;;;;;;;4.40;2.30;;;;;;;5.14;82.52;97478.81;9912283;28;20057;-61
2020/12/04 07:35:18;;;;;;;4.20;2.10;;;;;;;5.14;82.92;97489.34;9906776;28;20494;-61
2020/12/04 07:40:19;;;;;;;4.05;2.45;;;;;;;5.20;82.97;97488.72;9907513;28;20049;-58
2020/12/04 07:45:21;;;;;;;3.45;2.17;;;;;;;5.29;82.24;97493.03;9912473;28;23227;-63
2020/12/04 07:50:22;;;;;;;3.92;2.05;;;;;;;5.23;81.89;97483.13;9904789;28;20080;-60
2020/12/04 07:55:32;;;;;;;5.57;2.40;;;;;;;5.33;82.02;97493.56;9916384;28;20056;-61
2020/12/04 08:00:35;;;;;;;2.78;2.47;;;;;;;5.45;81.72;97496.72;9910850;28;20052;-61
2020/12/04 08:05:39;;;;;;;5.95;3.20;;;;;;;5.50;81.42;97494.47;9911949;28;20045;-61
2020/12/04 08:10:40;;;;;;;4.68;2.65;;;;;;;5.58;81.42;97494.47;9912660;28;20057;-60
2020/12/04 08:15:42;;;;;;;3.63;3.20;;;;;;;5.53;81.36;97483.59;9929391;28;20056;-60
2020/12/04 08:20:43;;;;;;;4.25;3.58;;;;;;;5.51;81.29;97479.44;9924098;28;23077;-60
2020/12/04 08:25:44;;;;;;;5.50;4.45;;;;;;;5.54;80.73;97482.63;9913351;28;20052;-60
2020/12/04 08:30:46;;;;;;;5.03;4.47;;;;;;;5.52;80.56;97496.94;9921657;28;20404;-61
2020/12/04 08:35:49;;;;;;;5.95;3.70;;;;;;;5.60;79.66;97484.63;9913315;28;21821;-61
2020/12/04 08:40:52;;;;;;;6.03;4.40;;;;;;;5.63;79.80;97486.09;9916513;28;20099;-61
2020/12/04 08:45:57;;;;;;;4.97;3.80;;;;;;;5.66;79.11;97499.81;9920279;28;20135;-61
2020/12/04 08:51:04;;;;;;;4.65;3.90;;;;;;;5.63;78.97;97505.41;9912267;28;20553;-63
2020/12/04 08:56:06;;;;;;;5.65;3.75;;;;;;;5.71;78.77;97512.53;9926079;28;20063;-63
2020/12/04 09:01:07;;;;;;;6.50;4.85;;;;;;;5.68;78.73;97504.09;9917436;28;20063;-60
2020/12/04 09:06:28;;;;;;;5.85;4.22;;;;;;;5.83;78.00;97510.41;9921085;28;20507;-61
2020/12/04 09:11:32;;;;;;;5.28;4.22;;;;;;;5.94;77.27;97501.38;9905656;28;20063;-62
2020/12/04 09:16:33;;;;;;;8.20;5.77;;;;;;;5.99;76.86;97510.50;9907815;28;20049;-60
2020/12/04 09:21:35;;;;;;;7.82;5.00;;;;;;;5.98;76.54;97510.66;9913506;28;20063;-60
2020/12/04 09:26:36;;;;;;;6.40;4.70;;;;;;;6.07;76.96;97512.31;9913352;28;20064;-60
2020/12/04 09:31:38;;;;;;;5.35;4.53;;;;;;;6.19;76.69;97515.47;9916825;28;20720;-61
2020/12/04 09:36:39;;;;;;;5.07;4.50;;;;;;;6.33;75.86;97525.38;9913590;28;21594;-61
2020/12/04 09:41:42;;;;;;;6.55;4.53;;;;;;;6.41;75.36;97529.03;9922482;28;20054;-61
2020/12/04 09:46:45;;;;;;;5.97;4.88;;;;;;;6.41;74.59;97505.25;9934782;28;20128;-61
2020/12/04 09:51:46;;;;;;;5.90;5.22;;;;;;;6.69;73.70;97533.00;9907425;28;22263;-60
2020/12/04 09:56:51;;;;;;;7.97;6.72;;;;;;;6.90;71.97;97540.47;9918584;28;20427;-63
2020/12/04 10:01:53;;;;;;;8.88;6.90;;;;;;;7.04;70.54;97531.03;9909116;28;20059;-63
2020/12/04 10:06:55;;;;;;;11.43;8.48;;;;;;;7.28;69.36;97528.47;9912848;28;20132;-62
2020/12/04 10:11:57;;;;;;;8.82;7.75;;;;;;;7.53;67.60;97518.66;9920160;28;20060;-61
2020/12/04 10:16:58;;;;;;;8.18;7.38;;;;;;;7.84;66.10;97515.22;9916068;28;20059;-61
2020/12/04 10:21:59;;;;;;;9.50;8.25;;;;;;;8.20;64.62;97514.69;9928980;28;20667;-62
2020/12/04 10:27:01;;;;;;;8.02;7.20;;;;;;;9.18;62.62;97519.19;9920770;28;20060;-64
2020/12/04 10:32:02;;;;;;;11.13;7.07;;;;;;;10.30;58.50;97514.69;9905988;28;22015;-62
2020/12/04 10:37:04;;;;;;;9.60;7.88;;;;;;;10.13;57.69;97514.06;9916487;28;20056;-62
2020/12/04 10:42:05;;;;;;;8.23;7.38;;;;;;;9.24;60.45;97522.16;9926020;28;21818;-62
2020/12/04 10:47:07;;;;;;;8.15;7.32;;;;;;;8.71;62.46;97528.25;9921906;28;20053;-62
2020/12/04 10:52:08;;;;;;;10.73;7.80;;;;;;;8.23;63.59;97535.53;9911409;28;20057;-63
2020/12/04 10:57:10;;;;;;;12.15;9.18;;;;;;;8.13;64.49;97531.25;9908964;28;20056;-62
2020/12/04 11:02:18;;;;;;;8.60;7.63;;;;;;;7.90;65.66;97554.25;9911046;28;20057;-63
2020/12/04 11:07:20;;;;;;;9.85;8.05;;;;;;;7.55;67.79;97537.81;9914228;28;20403;-63
2020/12/04 11:12:33;;;;;;;9.88;7.47;;;;;;;7.46;69.08;97537.06;9905458;28;20056;-67
2020/12/04 11:17:35;;;;;;;8.85;7.63;;;;;;;7.39;69.88;97521.00;9901659;28;20083;-61
2020/12/04 11:22:37;;;;;;;9.52;8.60;;;;;;;7.40;70.41;97545.66;9874682;28;21813;-66
2020/12/04 11:27:43;;;;;;;11.00;7.90;;;;;;;7.34;71.15;97548.97;9893462;28;22323;-64
2020/12/04 11:32:45;;;;;;;11.77;7.30;;;;;;;7.33;71.51;97524.34;9898090;28;20053;-64
2020/12/04 11:37:48;;;;;;;10.48;7.85;;;;;;;7.31;72.46;97526.34;9906495;28;24457;-62
2020/12/04 11:42:50;;;;;;;9.63;7.55;;;;;;;7.33;72.88;97534.09;9939155;28;20071;-62
2020/12/04 11:47:52;;;;;;;10.80;7.45;;;;;;;7.25;73.97;97532.28;9918803;28;20064;-62
2020/12/04 11:52:53;;;;;;;8.63;7.38;;;;;;;7.27;74.08;97538.25;9908517;28;20056;-62
2020/12/04 11:57:55;;;;;;;8.77;6.63;;;;;;;7.29;74.43;97541.53;9908625;28;20948;-64
2020/12/04 12:02:56;;;;;;;9.90;7.20;;;;;;;7.32;74.81;97522.69;9910834;28;20054;-63
2020/12/04 12:07:58;;;;;;;8.27;7.03;;;;;;;7.29;74.67;97523.00;9908491;28;20054;-62
2020/12/04 12:12:59;;;;;;;9.35;8.35;;;;;;;7.19;74.51;97504.69;9922552;28;24194;-63
2020/12/04 12:33:52;;;;;;;12.55;10.05;;;;;;;7.26;73.14;97510.13;11034667;23;23753;-64
2020/12/04 12:54:43;;;;;;;13.85;11.57;;;;;;;6.86;71.81;97517.13;10743100;22;20076;-68
2020/12/04 12:59:45;;;;;;;14.77;11.75;;;;;;;6.72;72.31;97532.72;9799787;28;20061;-70
2020/12/04 13:04:47;;;;;;;13.15;10.88;;;;;;;6.72;72.42;97532.72;9767498;23;20054;-66
2020/12/04 13:09:48;;;;;;;15.90;12.68;;;;;;;6.70;71.72;97525.94;9795994;28;20065;-66
2020/12/04 13:14:49;;;;;;;14.85;12.82;;;;;;;6.65;71.92;97526.44;9811979;28;23185;-67
2020/12/04 13:19:51;;;;;;;15.20;12.00;;;;;;;6.79;71.61;97537.31;9811046;28;24193;-69
2020/12/04 13:24:52;;;;;;;17.73;12.98;;;;;;;6.78;70.51;97530.38;9795981;28;23858;-67
2020/12/04 13:29:53;;;;;;;17.33;14.45;;;;;;;6.82;70.05;97537.00;10240375;28;20062;-64
2020/12/04 13:34:54;;;;;;;17.42;14.50;;;;;;;6.90;68.65;97556.34;10305718;28;20053;-68
2020/12/04 13:40:04;;;;;;;16.33;14.40;;;;;;;6.89;68.09;97564.41;10311972;28;20050;-66
2020/12/04 13:45:06;;;;;;;17.50;14.55;;;;;;;6.80;68.53;97554.81;10135998;28;20880;-70
2020/12/04 13:50:08;;;;;;;20.15;16.60;;;;;;;6.53;65.01;97583.22;9791625;28;20054;-71
2020/12/04 13:55:09;;;;;;;19.27;17.17;;;;;;;6.28;64.85;97577.91;9791819;28;20165;-70
2020/12/04 14:00:10;;;;;;;20.00;16.45;;;;;;;6.11;65.19;97557.72;9813040;28;20073;-70
2020/12/04 14:05:12;;;;;;;24.00;17.60;;;;;;;6.12;64.97;97583.13;9797056;28;20061;-69
2020/12/04 14:10:13;;;;;;;18.38;16.05;;;;;;;6.06;65.68;97573.22;9809468;28;25299;-70
2020/12/04 14:15:14;;;;;;;19.23;17.13;;;;;;;6.10;65.93;97593.06;9801648;28;20069;-70
2020/12/04 14:20:16;;;;;;;20.17;16.50;;;;;;;5.96;66.64;97581.22;9803911;28;20084;-72
2020/12/04 14:25:17;;;;;;;21.38;17.40;;;;;;;6.10;67.16;97571.91;9791039;28;20058;-70
2020/12/04 14:30:18;;;;;;;22.10;17.85;;;;;;;6.18;68.59;97574.56;9807568;28;20732;-71
2020/12/04 14:35:20;;;;;;;22.70;17.00;;;;;;;6.16;66.63;97581.84;9797222;28;20061;-72
2020/12/04 14:40:28;;;;;;;21.05;17.98;;;;;;;6.09;66.56;97599.31;9797466;28;20070;-71
2020/12/04 14:45:30;;;;;;;20.17;17.08;;;;;;;5.99;66.91;97600.28;9790854;28;20045;-70
2020/12/04 14:50:31;;;;;;;23.67;18.95;;;;;;;5.89;66.18;97612.75;9795786;28;20046;-71
2020/12/04 14:55:32;;;;;;;19.95;16.90;;;;;;;5.94;67.22;97631.56;9787072;28;21687;-70
2020/12/04 15:00:34;;;;;;;23.88;19.35;;;;;;;5.86;67.25;97647.38;9795023;28;20065;-70
2020/12/04 15:05:35;;;;;;;22.02;18.60;;;;;;;5.82;68.48;97648.66;9798387;28;20061;-71
2020/12/04 15:10:36;;;;;;;26.63;19.38;;;;;;;5.64;68.05;97648.72;9793499;28;20505;-71
2020/12/04 15:15:38;;;;;;;26.85;19.00;;;;;;;5.53;68.40;97647.19;9795424;28;20090;-72
2020/12/04 15:20:40;;;;;;;26.95;21.48;;;;;;;5.48;70.19;97638.94;9788351;28;21923;-72
2020/12/04 15:25:41;;;;;;;24.08;20.48;;;;;;;5.43;69.96;97630.63;9796462;28;21005;-71
2020/12/04 15:30:43;;;;;;;27.05;21.25;;;;;;;5.41;70.58;97635.25;9800684;28;20142;-71
2020/12/04 15:35:47;;;;;;;28.03;22.23;;;;;;;5.30;70.28;97641.59;9780561;28;20057;-71
2020/12/04 15:40:49;;;;;;;26.67;21.40;;;;;;;5.28;70.13;97654.94;9788406;28;20293;-70
2020/12/04 15:45:50;;;;;;;27.25;22.80;;;;;;;5.17;70.29;97657.81;9803865;28;20064;-72
2020/12/04 15:50:52;;;;;;;28.13;24.73;;;;;;;5.19;70.05;97686.66;9803245;28;20058;-73
2020/12/04 15:55:53;;;;;;;31.50;23.65;;;;;;;5.11;69.56;97682.16;9820757;28;20058;-71
2020/12/04 16:00:55;;;;;;;31.52;27.15;;;;;;;5.13;69.51;97678.41;9820225;28;20124;-71
2020/12/04 16:05:56;;;;;;;40.42;36.13;;;;;;;5.04;69.66;97668.75;9804230;28;23349;-71
2020/12/04 16:10:57;;;;;;;40.55;35.25;;;;;;;4.93;68.41;97661.91;9821398;28;20054;-71
2020/12/04 16:15:59;;;;;;;38.85;30.45;;;;;;;4.94;68.60;97684.66;9818106;28;20053;-70
2020/12/04 16:21:00;;;;;;;30.48;26.70;;;;;;;4.80;68.95;97690.44;9798530;28;24452;-70
2020/12/04 16:26:03;;;;;;;33.25;27.73;;;;;;;4.84;68.77;97697.06;9785225;28;20054;-71
2020/12/04 16:31:04;;;;;;;27.45;22.90;;;;;;;4.80;68.40;97686.97;9789736;28;20192;-71
2020/12/04 16:36:06;;;;;;;29.52;24.48;;;;;;;4.83;67.62;97690.13;9819789;28;20060;-70
2020/12/04 16:41:07;;;;;;;27.33;23.77;;;;;;;4.80;68.58;97693.06;9806188;28;20481;-72
2020/12/04 16:46:08;;;;;;;25.30;21.17;;;;;;;4.77;68.53;97688.94;9797350;28;20058;-71
2020/12/04 16:51:13;;;;;;;27.60;22.85;;;;;;;4.81;68.74;97678.94;9801798;28;20057;-71
2020/12/04 16:56:19;;;;;;;26.90;21.20;;;;;;;4.90;69.15;97682.47;9798568;28;20549;-71
2020/12/04 17:01:20;;;;;;;24.98;20.35;;;;;;;4.91;68.38;97678.88;9796898;28;20059;-71
2020/12/04 17:06:23;;;;;;;27.50;22.35;;;;;;;4.91;68.60;97684.13;9809119;28;20055;-73
2020/12/04 17:11:24;;;;;;;28.10;21.58;;;;;;;4.84;68.15;97683.91;9796301;28;20050;-72
2020/12/04 17:16:25;;;;;;;25.52;20.30;;;;;;;4.86;68.40;97687.19;9805852;28;20093;-70
2020/12/04 17:21:27;;;;;;;25.70;19.80;;;;;;;4.89;67.74;97692.16;9802895;28;20057;-72
2020/12/04 17:26:28;;;;;;;24.42;19.90;;;;;;;4.83;67.48;97690.13;9793764;28;20066;-71
2020/12/04 17:31:29;;;;;;;26.45;19.58;;;;;;;4.82;66.78;97685.88;9808570;28;20058;-71
2020/12/04 17:36:31;;;;;;;26.52;20.65;;;;;;;4.78;66.20;97692.41;9791594;28;20152;-70
2020/12/04 17:41:32;;;;;;;26.60;19.92;;;;;;;4.78;66.75;97690.59;9726764;28;20060;-72
2020/12/04 17:46:33;;;;;;;24.17;18.40;;;;;;;4.85;66.18;97679.44;9700990;28;20057;-74
2020/12/04 17:51:35;;;;;;;25.00;18.63;;;;;;;4.82;65.48;97669.19;9748659;28;20058;-72
2020/12/04 17:56:37;;;;;;;26.95;17.98;;;;;;;4.83;64.77;97661.13;9813027;28;20059;-71
2020/12/04 18:01:38;;;;;;;22.98;17.77;;;;;;;4.94;65.01;97673.28;9803536;28;20125;-71
2020/12/04 18:06:39;;;;;;;21.17;17.67;;;;;;;4.93;64.94;97677.72;9812985;28;22755;-68
2020/12/04 18:11:42;;;;;;;23.45;17.60;;;;;;;4.90;65.60;97651.66;9799236;28;20050;-69
2020/12/04 18:16:43;;;;;;;21.92;16.67;;;;;;;4.90;65.46;97682.47;9813992;28;20817;-71
2020/12/04 18:21:44;;;;;;;22.02;19.00;;;;;;;4.93;65.54;97677.72;9822445;28;20057;-72
2020/12/04 18:26:50;;;;;;;23.08;18.98;;;;;;;4.98;65.23;97658.00;9862860;28;20445;-69
2020/12/04 18:31:52;;;;;;;24.95;19.58;;;;;;;4.93;64.95;97635.53;9810262;28;20069;-69
2020/12/04 18:36:55;;;;;;;24.42;18.55;;;;;;;4.92;66.16;97662.91;9802913;28;20046;-69
2020/12/04 18:41:58;;;;;;;22.30;17.60;;;;;;;4.87;66.33;97675.69;9809945;28;20054;-68
2020/12/04 18:47:00;;;;;;;23.13;17.42;;;;;;;4.83;66.98;97676.97;9814547;28;20144;-67
2020/12/04 18:52:01;;;;;;;23.15;17.58;;;;;;;4.82;67.30;97688.50;9806409;28;20055;-69
2020/12/04 18:57:02;;;;;;;21.02;17.63;;;;;;;4.77;67.16;97681.03;9792778;28;20058;-67
2020/12/04 19:02:04;;;;;;;21.90;17.30;;;;;;;4.85;67.47;97698.75;9800290;28;20063;-68
2020/12/04 19:07:05;;;;;;;23.77;18.48;;;;;;;4.83;67.33;97687.50;9801566;28;20062;-71
2020/12/04 19:12:08;;;;;;;26.17;19.10;;;;;;;4.87;67.41;97695.94;9811523;28;20042;-69
2020/12/04 19:17:09;;;;;;;22.95;18.40;;;;;;;4.97;66.62;97702.00;9796964;28;20053;-70
2020/12/04 19:22:10;;;;;;;20.00;16.73;;;;;;;5.00;66.57;97695.56;9781253;28;20058;-70
2020/12/04 19:27:12;;;;;;;21.17;17.23;;;;;;;4.95;66.18;97696.88;9794057;28;22569;-70
2020/12/04 19:32:13;;;;;;;21.60;18.40;;;;;;;4.98;66.23;97732.63;9801150;28;20572;-70
2020/12/04 19:37:14;;;;;;;19.25;16.30;;;;;;;4.95;65.72;97739.03;9803701;28;21263;-69
2020/12/04 19:42:16;;;;;;;22.15;17.15;;;;;;;4.97;65.99;97765.25;9791198;28;23433;-70
2020/12/04 19:47:17;;;;;;;20.60;17.63;;;;;;;4.98;66.11;97766.91;9801853;28;20057;-70
2020/12/04 19:52:20;;;;;;;22.20;16.63;;;;;;;5.05;65.94;97790.88;9803278;28;20065;-70
2020/12/04 19:57:21;;;;;;;24.25;18.52;;;;;;;5.06;65.34;97798.66;9797701;28;20054;-70
2020/12/04 20:02:23;;;;;;;20.17;16.98;;;;;;;5.13;65.59;97804.13;9794590;28;20666;-70
2020/12/04 20:07:24;;;;;;;20.13;16.77;;;;;;;5.15;63.76;97799.56;9799383;28;20401;-69
2020/12/04 20:12:26;;;;;;;22.40;16.42;;;;;;;5.17;63.77;97800.22;9801590;28;20421;-70
2020/12/04 20:17:28;;;;;;;21.50;17.23;;;;;;;5.14;63.99;97774.16;9797690;28;21764;-70
2020/12/04 20:22:30;;;;;;;21.50;16.55;;;;;;;5.21;63.82;97754.13;9796260;28;20065;-71
2020/12/04 20:27:32;;;;;;;19.85;16.50;;;;;;;5.22;64.28;97728.56;9801618;28;20061;-72
2020/12/04 20:32:33;;;;;;;22.75;17.85;;;;;;;5.22;63.99;97720.66;9793495;28;20057;-71
2020/12/04 20:37:35;;;;;;;25.05;17.98;;;;;;;5.22;64.46;97716.19;9815069;28;20050;-69
2020/12/04 20:42:36;;;;;;;21.80;17.08;;;;;;;5.23;64.49;97717.03;9790670;28;20055;-70
2020/12/04 20:47:38;;;;;;;23.05;17.13;;;;;;;5.21;63.84;97716.34;9775316;28;20062;-70
2020/12/04 20:52:39;;;;;;;24.38;18.80;;;;;;;5.21;63.80;97705.81;9793999;28;20369;-72
2020/12/04 20:57:40;;;;;;;24.00;18.38;;;;;;;5.25;64.04;97734.34;9787136;28;20089;-69
2020/12/04 21:02:42;;;;;;;22.30;17.88;;;;;;;5.22;63.32;97713.56;9785138;28;20050;-70
2020/12/04 21:07:43;;;;;;;22.25;17.20;;;;;;;5.22;63.38;97689.81;9796366;28;20054;-69
2020/12/04 21:12:44;;;;;;;23.20;18.55;;;;;;;5.29;63.43;97719.06;9788780;28;20050;-74
2020/12/04 21:17:46;;;;;;;21.67;17.40;;;;;;;5.25;63.23;97747.53;9795984;28;20174;-70
2020/12/04 21:22:49;;;;;;;22.00;18.10;;;;;;;5.18;63.00;97791.34;9799649;28;20058;-70
2020/12/04 21:27:50;;;;;;;23.75;18.77;;;;;;;5.04;63.44;97815.59;9808962;28;20054;-71
2020/12/04 21:32:52;;;;;;;21.00;17.83;;;;;;;5.05;64.02;97790.88;9799420;28;20061;-71
2020/12/04 21:38:00;;;;;;;21.77;16.70;;;;;;;5.08;64.40;97780.03;9800802;28;20181;-70
2020/12/04 21:43:02;;;;;;;23.05;19.70;;;;;;;5.13;63.54;97767.22;9814707;28;20540;-70
2020/12/04 21:48:03;;;;;;;22.60;17.85;;;;;;;5.24;63.86;97774.06;9818367;28;20050;-70
2020/12/04 21:53:04;;;;;;;19.75;17.42;;;;;;;5.12;63.40;97760.31;9792329;28;20231;-68
2020/12/04 21:58:05;;;;;;;20.08;16.75;;;;;;;5.26;63.40;97809.88;9786764;28;20049;-69
2020/12/04 22:03:07;;;;;;;21.20;17.20;;;;;;;5.19;63.27;97798.25;9796898;28;20061;-68
2020/12/04 22:08:09;;;;;;;23.75;18.80;;;;;;;5.19;63.59;97782.44;9789987;28;20058;-68
2020/12/04 22:13:10;;;;;;;20.95;17.50;;;;;;;5.23;63.57;97762.72;9808263;28;20105;-70
2020/12/04 22:18:11;;;;;;;22.10;17.35;;;;;;;5.10;63.14;97738.50;9788565;28;20111;-67
2020/12/04 22:23:12;;;;;;;21.70;16.92;;;;;;;5.23;63.19;97719.69;9796498;28;20084;-67
2020/12/04 22:28:14;;;;;;;20.17;16.95;;;;;;;5.20;62.82;97720.81;9797164;28;20150;-69
2020/12/04 22:33:15;;;;;;;22.35;18.08;;;;;;;5.25;63.39;97697.44;9798933;28;20058;-69
2020/12/04 22:38:16;;;;;;;20.25;17.40;;;;;;;5.14;62.89;97716.97;9794990;28;20382;-69
2020/12/04 22:43:17;;;;;;;22.20;18.38;;;;;;;5.17;63.07;97731.66;9800132;28;20134;-69
2020/12/04 22:48:19;;;;;;;21.75;16.98;;;;;;;5.17;63.67;97734.28;9787665;28;20065;-69
2020/12/04 22:53:20;;;;;;;24.02;17.77;;;;;;;5.18;63.81;97754.44;9808466;28;20172;-68
2020/12/04 22:58:22;;;;;;;19.98;16.38;;;;;;;5.19;63.88;97786.91;9803387;28;20062;-69
2020/12/04 23:03:24;;;;;;;21.92;17.23;;;;;;;5.15;64.31;97791.66;9820948;28;20058;-70
2020/12/04 23:08:25;;;;;;;23.92;19.38;;;;;;;5.11;64.05;97795.56;9820668;28;20078;-70
2020/12/04 23:13:26;;;;;;;21.60;17.05;;;;;;;4.90;63.73;97806.38;9827771;28;22548;-71
2020/12/04 23:18:28;;;;;;;20.33;16.90;;;;;;;4.93;64.47;97809.53;9840036;28;20054;-68
2020/12/04 23:23:29;;;;;;;22.60;17.27;;;;;;;5.00;64.14;97803.66;9816025;28;20753;-69
2020/12/04 23:28:51;;;;;;;23.20;17.75;;;;;;;4.98;64.56;97817.00;9817184;28;20132;-70
2020/12/04 23:33:53;;;;;;;20.50;18.13;;;;;;;4.96;64.17;97811.88;9825628;28;20057;-69
2020/12/04 23:38:54;;;;;;;22.20;18.33;;;;;;;4.99;64.43;97817.84;9843992;28;20073;-71
2020/12/04 23:43:55;;;;;;;22.15;17.48;;;;;;;4.89;64.58;97816.06;9826965;28;20420;-69
2020/12/04 23:48:57;;;;;;;24.30;18.55;;;;;;;4.93;64.75;97808.72;9833298;28;20061;-69
2020/12/04 23:53:58;;;;;;;22.10;18.02;;;;;;;4.94;64.54;97802.47;9827047;28;20181;-69
2020/12/04 23:58:59;;;;;;;24.63;18.73;;;;;;;5.02;64.13;97788.53;9812729;28;20235;-68
